createdAt,value
2023-02-11T00:01:00.821Z,31.51
2023-02-11T00:16:10.180Z,32.41
2023-02-11T00:31:20.009Z,34.76
2023-02-11T00:46:29.205Z,36.92
2023-02-11T01:01:39.502Z,33.57
2023-02-11T01:16:48.978Z,32.76
2023-02-11T01:31:58.270Z,34.81
2023-02-11T01:47:07.580Z,31.42
2023-02-11T02:02:24.055Z,36.60
2023-02-11T02:17:40.915Z,34.82
2023-02-11T02:32:58.096Z,32.77
2023-02-11T02:48:17.864Z,36.72
2023-02-11T03:03:34.179Z,34.19
2023-02-11T03:18:51.539Z,34.58
2023-02-11T03:34:08.922Z,35.40
2023-02-11T03:49:25.435Z,33.69
2023-02-11T04:04:44.606Z,34.23
2023-02-11T04:20:03.225Z,33.12
2023-02-11T04:35:20.715Z,30.70
2023-02-11T04:50:38.237Z,33.02
2023-02-11T05:05:55.710Z,30.43
2023-02-11T05:21:13.336Z,30.83
2023-02-11T05:36:32.228Z,26.87
2023-02-11T05:51:47.345Z,30.30
2023-02-11T06:07:04.661Z,33.38
2023-02-11T06:22:20.114Z,35.88
2023-02-11T06:37:37.523Z,40.99
2023-02-11T06:52:55.208Z,44.79
2023-02-11T07:08:12.627Z,42.31
2023-02-11T07:23:29.148Z,48.26
2023-02-11T07:38:46.690Z,48.00
2023-02-11T07:54:03.142Z,46.46
2023-02-11T08:09:20.717Z,49.37
2023-02-11T08:24:37.205Z,44.32
2023-02-11T08:55:12.254Z,44.67
2023-02-11T09:10:29.379Z,47.52
2023-02-11T09:25:44.896Z,46.94
2023-02-11T09:41:02.398Z,42.88
2023-02-11T09:56:21.989Z,28.98
2023-02-11T10:11:30.923Z,39.58
2023-02-11T10:26:12.917Z,31.18
2023-02-11T10:41:07.955Z,34.84
2023-02-11T10:56:05.974Z,26.40
2023-02-11T11:26:17.649Z,25.33
2023-02-11T11:41:20.824Z,20.43
2023-02-11T11:56:22.902Z,20.30
2023-02-11T12:11:28.046Z,21.60
2023-02-11T12:26:24.107Z,19.31
2023-02-11T12:41:52.902Z,19.53
2023-02-11T12:56:52.356Z,19.01
2023-02-11T13:11:45.486Z,20.21
2023-02-11T13:26:59.894Z,19.79
2023-02-11T13:41:57.932Z,18.42
2023-02-11T13:56:50.957Z,21.74
2023-02-11T14:11:52.055Z,19.36
2023-02-11T14:26:48.988Z,17.66
2023-02-11T14:41:40.952Z,19.54
2023-02-11T14:56:32.774Z,22.40
2023-02-11T15:11:24.944Z,21.61
2023-02-11T15:26:15.575Z,25.40
2023-02-11T15:41:07.616Z,21.88
2023-02-11T15:56:11.845Z,21.20
2023-02-11T16:11:10.842Z,20.92
2023-02-11T16:26:06.464Z,24.32
2023-02-11T16:40:59.205Z,23.37
2023-02-11T16:55:52.236Z,24.62
2023-02-11T17:10:45.016Z,24.50
2023-02-11T17:25:38.046Z,25.63
2023-02-11T17:40:30.679Z,29.42
2023-02-11T17:55:23.378Z,24.27
2023-02-11T18:10:16.430Z,34.33
2023-02-11T18:25:09.421Z,31.94
2023-02-11T18:40:02.311Z,30.28
2023-02-11T18:54:55.225Z,28.97
2023-02-11T19:09:49.082Z,29.62
2023-02-11T19:24:42.967Z,36.60
2023-02-11T19:39:33.882Z,33.76
2023-02-11T19:54:24.740Z,35.66
2023-02-11T20:09:16.738Z,30.82
2023-02-11T20:24:09.681Z,32.59
2023-02-11T20:54:17.118Z,31.12
2023-02-11T21:09:09.432Z,34.48
2023-02-11T21:24:02.389Z,33.97
2023-02-11T21:53:58.556Z,34.67
2023-02-11T22:08:52.534Z,34.70
2023-02-11T22:23:45.041Z,30.36
2023-02-11T22:38:37.895Z,27.30
2023-02-11T22:53:30.866Z,28.40
2023-02-11T23:08:22.295Z,27.88
2023-02-11T23:23:14.123Z,27.67
2023-02-11T23:38:04.954Z,28.96
2023-02-11T23:52:56.866Z,32.17
